createdAt,value
2023-02-11T01:48:39.421Z,27.05
2023-02-11T01:54:25.932Z,22.33
2023-02-11T02:00:09.652Z,26.27
2023-02-11T02:05:52.950Z,24.90
2023-02-11T02:11:21.844Z,23.90
2023-02-11T02:16:46.446Z,27.05
2023-02-11T02:28:13.870Z,25.08
2023-02-11T02:33:49.104Z,23.80
2023-02-11T02:39:18.043Z,26.17
2023-02-11T02:44:41.183Z,25.77
2023-02-11T02:50:14.832Z,18.33
2023-02-11T02:55:57.098Z,21.33
2023-02-11T03:01:31.258Z,27.08
2023-02-11T03:07:10.500Z,33.00
2023-02-11T03:12:38.732Z,29.73
2023-02-11T03:18:11.032Z,28.52
2023-02-11T03:23:41.132Z,39.90
2023-02-11T03:29:16.794Z,29.63
2023-02-11T03:34:50.865Z,30.45
2023-02-11T03:40:22.192Z,35.85
2023-02-11T03:45:54.750Z,34.97
2023-02-11T03:51:26.742Z,33.25
2023-02-11T03:57:00.580Z,40.47
2023-02-11T04:02:28.217Z,30.13
2023-02-11T04:07:57.367Z,27.67
2023-02-11T04:13:24.033Z,43.35
2023-02-11T04:18:51.110Z,40.30
2023-02-11T04:24:14.129Z,36.17
2023-02-11T04:29:39.272Z,34.17
2023-02-11T04:35:02.868Z,34.47
2023-02-11T04:40:26.417Z,34.80
2023-02-11T04:45:51.734Z,29.17
2023-02-11T04:51:16.098Z,44.20
2023-02-11T04:56:39.566Z,41.20
2023-02-11T05:02:04.218Z,34.15
2023-02-11T05:07:27.661Z,38.83
2023-02-11T05:12:51.047Z,32.75
2023-02-11T05:18:15.977Z,51.67
2023-02-11T05:23:40.281Z,35.97
2023-02-11T05:29:04.383Z,38.25
2023-02-11T05:34:29.446Z,30.90
2023-02-11T05:39:52.839Z,48.20
2023-02-11T05:45:15.024Z,35.83
2023-02-11T05:50:45.806Z,43.30
2023-02-11T05:56:10.610Z,46.17
2023-02-11T06:01:35.100Z,38.85
2023-02-11T06:07:14.608Z,51.42
2023-02-11T06:13:00.238Z,51.88
2023-02-11T06:18:48.926Z,51.08
2023-02-11T06:25:00.228Z,39.43
2023-02-11T06:30:35.782Z,59.03
2023-02-11T06:36:29.797Z,44.17
2023-02-11T06:42:18.595Z,53.90
2023-02-11T06:48:01.799Z,47.08
2023-02-11T06:53:28.684Z,91.85
2023-02-11T06:58:59.084Z,57.70
2023-02-11T07:04:28.810Z,59.75
2023-02-11T07:09:52.531Z,48.80
2023-02-11T07:15:20.977Z,41.45
2023-02-11T07:20:44.827Z,41.33
2023-02-11T07:26:12.256Z,50.55
2023-02-11T07:31:42.502Z,58.75
2023-02-11T07:37:11.276Z,59.83
2023-02-11T07:42:35.701Z,79.40
2023-02-11T07:47:59.680Z,89.60
2023-02-11T07:53:24.820Z,63.65
2023-02-11T07:58:53.762Z,65.85
2023-02-11T08:09:54.386Z,85.10
2023-02-11T08:15:19.691Z,77.28
2023-02-11T08:20:50.005Z,51.30
2023-02-11T08:26:21.662Z,52.10
2023-02-11T08:31:49.717Z,41.95
2023-02-11T08:37:14.511Z,58.47
2023-02-11T08:42:37.982Z,34.78
2023-02-11T08:48:00.400Z,33.67
2023-02-11T08:53:30.541Z,36.83
2023-02-11T08:58:59.244Z,62.25
2023-02-11T09:04:23.712Z,33.88
2023-02-11T09:09:49.515Z,33.78
2023-02-11T09:15:12.974Z,37.70
2023-02-11T09:20:39.957Z,28.25
2023-02-11T09:26:09.468Z,31.70
2023-02-11T09:31:35.338Z,33.20
2023-02-11T09:36:58.694Z,42.42
2023-02-11T09:42:51.662Z,28.52
2023-02-11T09:48:16.863Z,25.88
2023-02-11T09:53:44.420Z,42.55
2023-02-11T09:59:12.370Z,33.90
2023-02-11T10:04:59.823Z,31.05
2023-02-11T10:10:42.184Z,34.50
2023-02-11T10:16:25.046Z,31.45
2023-02-11T10:22:04.432Z,33.78
2023-02-11T10:27:37.090Z,33.25
2023-02-11T10:33:07.883Z,33.97
2023-02-11T10:38:33.075Z,39.40
2023-02-11T10:44:03.259Z,31.20
2023-02-11T10:55:16.298Z,31.00
2023-02-11T11:00:53.072Z,23.63
2023-02-11T11:06:31.621Z,30.95
2023-02-11T11:12:01.379Z,31.77
2023-02-11T11:17:30.167Z,31.47
2023-02-11T11:23:11.263Z,33.35
2023-02-11T11:28:41.298Z,31.88
2023-02-11T11:34:23.402Z,40.45
2023-02-11T11:39:58.200Z,37.53
2023-02-11T11:45:28.286Z,33.45
2023-02-11T11:50:57.324Z,28.63
2023-02-11T11:56:25.431Z,43.72
2023-02-11T12:02:17.825Z,37.13
2023-02-11T12:08:01.022Z,32.65
2023-02-11T12:13:47.075Z,39.50
2023-02-11T12:19:39.734Z,32.22
2023-02-11T12:25:27.413Z,37.22
2023-02-11T12:31:13.319Z,41.88
2023-02-11T12:36:55.509Z,28.25
2023-02-11T12:42:55.690Z,36.15
2023-02-11T12:48:37.004Z,34.90
2023-02-11T12:54:21.821Z,36.40
2023-02-11T13:00:00.928Z,33.88
2023-02-11T13:05:39.220Z,30.75
2023-02-11T13:11:15.000Z,38.42
2023-02-11T13:16:42.861Z,40.40
2023-02-11T13:22:18.754Z,30.88
2023-02-11T13:27:58.667Z,34.42
2023-02-11T13:33:34.588Z,39.90
2023-02-11T13:39:03.938Z,36.05
2023-02-11T13:44:28.696Z,28.92
2023-02-11T13:49:58.621Z,33.05
2023-02-11T13:55:27.733Z,33.17
2023-02-11T14:00:59.227Z,43.47
2023-02-11T14:06:45.239Z,33.22
2023-02-11T14:12:41.362Z,37.38
2023-02-11T14:18:39.056Z,38.95
2023-02-11T14:24:47.272Z,42.15
2023-02-11T14:30:51.528Z,44.58
2023-02-11T14:37:01.524Z,43.00
2023-02-11T14:42:31.105Z,40.55
2023-02-11T14:48:15.649Z,38.80
2023-02-11T14:54:03.923Z,47.80
2023-02-11T14:59:40.349Z,38.45
2023-02-11T15:05:21.589Z,47.28
2023-02-11T15:10:53.029Z,46.50
2023-02-11T15:16:24.463Z,45.55
2023-02-11T15:21:53.874Z,46.25
2023-02-11T15:27:26.778Z,41.95
2023-02-11T15:33:06.092Z,44.27
2023-02-11T15:38:43.041Z,48.40
2023-02-11T15:44:08.548Z,50.88
2023-02-11T15:49:51.662Z,47.75
2023-02-11T15:55:53.185Z,47.70
2023-02-11T16:01:34.077Z,43.97
2023-02-11T16:07:08.632Z,51.10
2023-02-11T16:12:39.137Z,47.80
2023-02-11T16:18:45.271Z,42.83
2023-02-11T16:24:28.858Z,46.83
2023-02-11T16:30:10.473Z,46.50
2023-02-11T16:35:38.915Z,59.38
2023-02-11T16:41:12.777Z,45.45
2023-02-11T16:46:40.462Z,56.55
2023-02-11T16:52:08.924Z,53.25
2023-02-11T16:57:33.810Z,48.60
2023-02-11T17:02:59.470Z,54.53
2023-02-11T17:08:23.473Z,51.80
2023-02-11T17:13:47.896Z,48.58
2023-02-11T17:19:15.992Z,51.22
2023-02-11T17:24:39.934Z,59.33
2023-02-11T17:30:03.541Z,56.95
2023-02-11T17:35:35.639Z,46.60
2023-02-11T17:41:10.280Z,47.05
2023-02-11T17:46:40.520Z,58.92
2023-02-11T17:52:07.306Z,53.13
2023-02-11T17:57:31.928Z,55.08
2023-02-11T18:03:03.007Z,51.53
2023-02-11T18:08:33.883Z,48.65
2023-02-11T18:14:00.311Z,46.63
2023-02-11T18:25:04.327Z,44.58
2023-02-11T18:30:34.988Z,45.38
2023-02-11T18:36:01.737Z,37.70
2023-02-11T18:41:28.891Z,45.70
2023-02-11T18:46:52.905Z,48.28
2023-02-11T18:52:19.827Z,44.40
2023-02-11T18:57:45.215Z,39.58
2023-02-11T19:03:09.904Z,41.45
2023-02-11T19:08:34.098Z,32.35
2023-02-11T19:13:59.125Z,37.95
2023-02-11T19:19:29.844Z,32.93
2023-02-11T19:25:06.217Z,35.72
2023-02-11T19:30:38.504Z,38.33
2023-02-11T19:36:10.201Z,37.70
2023-02-11T19:41:36.809Z,33.63
2023-02-11T19:47:01.823Z,33.05
2023-02-11T19:52:39.252Z,38.78
2023-02-11T19:58:09.070Z,31.55
2023-02-11T20:09:15.190Z,33.28
2023-02-11T20:14:49.247Z,32.95
2023-02-11T20:20:28.942Z,27.23
2023-02-11T20:26:16.780Z,36.97
2023-02-11T20:31:49.955Z,32.67
2023-02-11T20:37:15.657Z,32.58
2023-02-11T20:42:41.469Z,37.65
2023-02-11T20:48:11.236Z,35.45
2023-02-11T20:53:48.616Z,29.02
2023-02-11T20:59:19.816Z,31.42
2023-02-11T21:04:44.295Z,31.10
2023-02-11T21:10:14.668Z,32.85
2023-02-11T21:15:38.006Z,26.33
2023-02-11T21:21:02.227Z,29.65
2023-02-11T21:26:32.776Z,32.10
2023-02-11T21:32:01.712Z,35.22
2023-02-11T21:37:30.552Z,34.77
2023-02-11T21:42:57.951Z,32.08
2023-02-11T21:48:21.447Z,30.67
2023-02-11T21:53:54.495Z,31.07
2023-02-11T21:59:24.815Z,27.92
2023-02-11T22:04:53.714Z,27.35
2023-02-11T22:10:22.597Z,28.87
2023-02-11T22:16:00.348Z,36.27
2023-02-11T22:21:29.821Z,31.55
2023-02-11T22:26:53.560Z,36.67
2023-02-11T22:32:24.120Z,29.80
2023-02-11T22:37:47.913Z,28.52
2023-02-11T22:43:16.339Z,30.50
2023-02-11T22:48:47.571Z,29.40
2023-02-11T22:54:18.395Z,33.25
2023-02-11T22:59:47.535Z,26.95
2023-02-11T23:05:14.306Z,27.35
2023-02-11T23:10:43.734Z,31.95
2023-02-11T23:16:15.771Z,29.17
2023-02-11T23:21:42.279Z,29.35
2023-02-11T23:27:07.042Z,34.33
2023-02-11T23:32:39.143Z,32.95
2023-02-11T23:38:04.901Z,34.55
2023-02-11T23:43:32.940Z,26.50
2023-02-11T23:48:57.830Z,26.38
2023-02-11T23:54:24.388Z,30.15
2023-02-11T23:59:53.710Z,28.98
